createdAt,value
2022-08-01T00:00:50.184Z,5.40
2022-08-01T00:04:56.310Z,7.97
2022-08-01T00:08:58.861Z,12.23
2022-08-01T00:13:00.964Z,10.15
2022-08-01T00:17:07.202Z,12.05
2022-08-01T00:21:09.865Z,14.25
2022-08-01T00:25:12.144Z,12.10
2022-08-01T00:30:09.537Z,14.98
2022-08-01T00:33:36.796Z,17.40
2022-08-01T00:37:38.897Z,13.90
2022-08-01T00:41:41.369Z,13.73
2022-08-01T00:45:43.784Z,13.63
2022-08-01T00:49:46.283Z,16.75
2022-08-01T00:53:51.898Z,11.98
2022-08-01T00:58:02.726Z,8.88
2022-08-01T01:02:14.679Z,7.88
2022-08-01T01:06:43.282Z,9.90
2022-08-01T01:10:56.501Z,7.85
2022-08-01T01:15:26.275Z,9.02
2022-08-01T01:19:35.342Z,14.07
2022-08-01T01:24:14.972Z,9.77
2022-08-01T01:28:44.824Z,7.72
2022-08-01T01:32:51.541Z,11.77
2022-08-01T01:36:58.057Z,6.50
2022-08-01T01:41:03.451Z,8.10
2022-08-01T01:45:06.907Z,11.23
2022-08-01T01:49:11.601Z,17.13
2022-08-01T01:53:16.592Z,13.77
2022-08-01T01:57:19.785Z,20.20
2022-08-01T02:01:58.671Z,16.88
2022-08-01T02:05:51.095Z,13.90
2022-08-01T02:09:55.534Z,14.45
2022-08-01T02:14:03.627Z,14.60
2022-08-01T02:18:08.806Z,16.33
2022-08-01T02:22:15.156Z,8.60
2022-08-01T02:26:19.622Z,9.63
2022-08-01T02:30:25.991Z,11.95
2022-08-01T02:34:33.205Z,10.25
2022-08-01T02:38:38.768Z,15.23
2022-08-01T02:42:46.709Z,18.00
2022-08-01T02:46:54.867Z,11.50
2022-08-01T02:51:01.413Z,10.23
2022-08-01T02:55:09.823Z,13.35
2022-08-01T02:59:19.805Z,8.32
2022-08-01T03:03:25.588Z,11.00
2022-08-01T03:07:34.307Z,10.27
2022-08-01T03:11:41.577Z,11.43
2022-08-01T03:15:45.512Z,6.82
2022-08-01T03:19:49.791Z,10.32
2022-08-01T03:23:58.308Z,15.57
2022-08-01T03:28:04.516Z,7.30
2022-08-01T03:32:08.001Z,11.43
2022-08-01T03:36:13.822Z,13.90
2022-08-01T03:40:27.287Z,9.05
2022-08-01T03:44:34.336Z,10.07
2022-08-01T03:48:40.764Z,9.55
2022-08-01T03:52:46.250Z,7.78
2022-08-01T03:56:51.017Z,8.15
2022-08-01T04:00:53.737Z,8.85
2022-08-01T04:04:56.711Z,11.52
2022-08-01T04:08:59.067Z,12.23
2022-08-01T04:13:01.560Z,10.82
2022-08-01T04:17:03.828Z,12.43
2022-08-01T04:21:06.045Z,7.65
2022-08-01T04:25:21.033Z,9.65
2022-08-01T04:29:24.343Z,14.93
2022-08-01T04:33:29.357Z,15.98
2022-08-01T04:37:32.342Z,9.55
2022-08-01T04:41:37.148Z,15.15
2022-08-01T04:45:40.651Z,10.75
2022-08-01T04:49:49.102Z,12.63
2022-08-01T04:53:52.253Z,14.55
2022-08-01T04:57:54.467Z,13.13
2022-08-01T05:01:56.610Z,12.90
2022-08-01T05:05:58.943Z,13.27
2022-08-01T05:10:02.548Z,14.20
2022-08-01T05:14:08.175Z,29.52
2022-08-01T05:18:10.775Z,13.40
2022-08-01T05:22:13.937Z,17.02
2022-08-01T05:26:16.356Z,15.68
2022-08-01T05:30:18.808Z,14.85
2022-08-01T05:34:21.742Z,15.57
2022-08-01T05:38:24.227Z,17.25
2022-08-01T05:42:26.549Z,13.13
2022-08-01T05:46:29.255Z,17.70
2022-08-01T05:50:31.459Z,12.52
2022-08-01T05:54:33.826Z,13.63
2022-08-01T05:58:35.880Z,28.17
2022-08-01T06:02:42.622Z,25.95
2022-08-01T06:06:45.867Z,21.60
2022-08-01T06:10:48.203Z,19.38
2022-08-01T06:14:50.298Z,15.35
2022-08-01T06:18:56.521Z,18.35
2022-08-01T06:22:59.888Z,15.57
2022-08-01T06:27:04.041Z,16.27
2022-08-01T06:31:24.315Z,17.77
2022-08-01T06:35:28.265Z,16.50
2022-08-01T06:39:32.045Z,12.07
2022-08-01T06:43:34.362Z,14.52
2022-08-01T06:47:37.855Z,13.68
2022-08-01T06:51:40.038Z,14.40
2022-08-01T06:55:42.272Z,11.15
2022-08-01T06:59:51.796Z,18.15
2022-08-01T07:03:56.818Z,10.85
2022-08-01T07:07:59.424Z,12.88
2022-08-01T07:12:01.631Z,9.75
2022-08-01T07:16:04.045Z,6.50
2022-08-01T07:20:08.495Z,5.57
2022-08-01T07:24:15.188Z,7.07
2022-08-01T07:28:17.787Z,8.25
2022-08-01T07:32:20.144Z,6.90
2022-08-01T07:36:22.417Z,6.07
2022-08-01T07:40:24.805Z,5.72
2022-08-01T07:44:28.214Z,8.82
2022-08-01T07:48:32.400Z,7.35
2022-08-01T07:52:34.744Z,8.13
2022-08-01T07:56:37.111Z,4.95
2022-08-01T08:00:39.243Z,9.25
2022-08-01T08:04:45.772Z,10.98
2022-08-01T08:08:51.006Z,6.35
2022-08-01T08:12:53.557Z,17.02
2022-08-01T08:16:55.903Z,4.07
2022-08-01T08:21:04.701Z,5.38
2022-08-01T08:25:10.051Z,3.95
2022-08-01T08:29:14.240Z,6.55
2022-08-01T08:33:16.467Z,6.88
2022-08-01T08:37:18.867Z,9.65
2022-08-01T08:41:23.817Z,5.50
2022-08-01T08:45:29.665Z,4.43
2022-08-01T08:49:50.283Z,5.53
2022-08-01T08:53:55.462Z,5.78
2022-08-01T08:57:58.594Z,8.25
2022-08-01T09:02:00.811Z,8.45
2022-08-01T09:06:04.749Z,7.72
2022-08-01T09:10:07.695Z,7.00
2022-08-01T09:14:24.356Z,11.15
2022-08-01T09:18:33.266Z,7.38
2022-08-01T09:26:37.585Z,10.02
2022-08-01T09:30:40.972Z,4.93
2022-08-01T09:34:43.311Z,1.92
2022-08-01T09:38:50.969Z,9.48
2022-08-01T09:43:11.947Z,10.20
2022-08-01T09:47:18.011Z,4.75
2022-08-01T09:51:59.422Z,6.65
2022-08-01T09:56:13.621Z,6.47
2022-08-01T10:00:43.724Z,5.20
2022-08-01T10:04:50.786Z,8.80
2022-08-01T10:08:53.265Z,9.10
2022-08-01T10:12:57.424Z,7.43
2022-08-01T10:17:05.310Z,4.97
2022-08-01T10:21:08.860Z,5.65
2022-08-01T10:25:17.816Z,7.70
2022-08-01T10:30:05.591Z,3.08
2022-08-01T10:34:12.265Z,2.97
2022-08-01T10:38:15.898Z,12.02
2022-08-01T10:42:19.889Z,7.28
2022-08-01T10:46:21.884Z,8.32
2022-08-01T10:50:48.508Z,3.10
2022-08-01T10:55:03.979Z,6.75
2022-08-01T10:59:11.840Z,5.05
2022-08-01T11:03:14.126Z,3.63
2022-08-01T11:07:25.828Z,4.55
2022-08-01T11:11:29.702Z,3.33
2022-08-01T11:15:49.940Z,6.05
2022-08-01T11:20:12.996Z,3.78
2022-08-01T11:24:16.639Z,3.40
2022-08-01T11:28:28.918Z,6.07
2022-08-01T11:32:42.451Z,4.47
2022-08-01T11:37:24.781Z,7.50
2022-08-01T11:41:38.132Z,6.15
2022-08-01T11:45:59.150Z,3.75
2022-08-01T11:50:02.533Z,4.55
2022-08-01T11:54:04.865Z,6.35
2022-08-01T11:58:22.550Z,3.42
2022-08-01T12:02:33.117Z,3.85
2022-08-01T12:06:35.576Z,3.85
2022-08-01T12:10:49.394Z,4.97
2022-08-01T12:14:57.716Z,5.00
2022-08-01T12:19:00.366Z,7.18
2022-08-01T12:23:10.435Z,3.88
2022-08-01T12:27:24.457Z,5.30
2022-08-01T12:31:34.864Z,8.30
2022-08-01T12:35:39.250Z,8.02
2022-08-01T12:39:41.891Z,3.65
2022-08-01T12:43:44.110Z,2.08
2022-08-01T12:47:47.317Z,3.42
2022-08-01T12:51:57.076Z,6.13
2022-08-01T12:56:00.163Z,8.45
2022-08-01T13:00:08.798Z,7.18
2022-08-01T13:04:11.125Z,8.50
2022-08-01T13:08:21.081Z,3.30
2022-08-01T13:12:23.670Z,5.35
2022-08-01T13:16:48.778Z,5.88
2022-08-01T13:20:50.564Z,3.72
2022-08-01T13:25:10.764Z,5.35
2022-08-01T13:29:22.015Z,4.20
2022-08-01T13:33:25.892Z,4.75
2022-08-01T13:37:28.203Z,4.65
2022-08-01T13:41:34.282Z,4.93
2022-08-01T13:45:36.577Z,5.07
2022-08-01T13:49:41.009Z,3.03
2022-08-01T13:53:43.340Z,6.15
2022-08-01T13:57:45.327Z,6.43
2022-08-01T14:01:48.134Z,3.97
2022-08-01T14:05:50.284Z,6.13
2022-08-01T14:10:18.327Z,5.05
2022-08-01T14:14:22.178Z,4.32
2022-08-01T14:18:24.565Z,7.38
2022-08-01T14:22:27.969Z,8.13
2022-08-01T14:26:30.235Z,9.13
2022-08-01T14:30:32.262Z,8.80
2022-08-01T14:34:34.535Z,4.32
2022-08-01T14:38:36.669Z,5.28
2022-08-01T14:42:40.034Z,9.48
2022-08-01T14:46:57.515Z,4.53
2022-08-01T14:51:03.861Z,4.57
2022-08-01T14:55:08.994Z,5.50
2022-08-01T14:59:21.319Z,4.15
2022-08-01T15:03:24.146Z,4.30
2022-08-01T15:07:26.522Z,4.22
2022-08-01T15:11:34.223Z,8.63
2022-08-01T15:15:37.225Z,6.75
2022-08-01T15:19:42.073Z,5.63
2022-08-01T15:23:44.986Z,6.22
2022-08-01T15:27:47.090Z,2.78
2022-08-01T15:31:49.263Z,7.72
2022-08-01T15:35:52.973Z,5.53
2022-08-01T15:39:56.725Z,4.05
2022-08-01T15:43:58.881Z,8.50
2022-08-01T15:48:01.105Z,6.63
2022-08-01T15:52:08.386Z,7.88
2022-08-01T15:56:25.325Z,5.20
2022-08-01T16:00:32.851Z,2.95
2022-08-01T16:04:41.155Z,10.35
2022-08-01T16:08:44.007Z,4.43
2022-08-01T16:12:46.268Z,11.32
2022-08-01T16:16:48.771Z,6.07
2022-08-01T16:20:51.124Z,3.45
2022-08-01T16:24:55.588Z,4.35
2022-08-01T16:29:00.061Z,3.40
2022-08-01T16:33:05.373Z,3.83
2022-08-01T16:37:24.441Z,3.97
2022-08-01T16:41:26.463Z,4.45
2022-08-01T16:45:28.705Z,3.20
2022-08-01T16:49:32.154Z,3.45
2022-08-01T16:53:34.623Z,4.63
2022-08-01T16:57:38.509Z,2.83
2022-08-01T17:02:00.239Z,3.08
2022-08-01T17:06:02.989Z,6.10
2022-08-01T17:10:07.447Z,3.40
2022-08-01T17:14:09.470Z,6.00
2022-08-01T17:18:11.796Z,6.05
2022-08-01T17:22:13.848Z,6.20
2022-08-01T17:26:16.197Z,7.60
2022-08-01T17:30:18.926Z,8.70
2022-08-01T17:34:22.439Z,8.15
2022-08-01T17:38:24.527Z,4.53
2022-08-01T17:42:30.255Z,6.18
2022-08-01T17:46:32.325Z,5.28
2022-08-01T17:50:34.769Z,5.85
2022-08-01T17:54:36.787Z,3.85
2022-08-01T17:58:51.813Z,6.65
2022-08-01T18:02:54.357Z,4.20
2022-08-01T18:06:59.030Z,4.95
2022-08-01T18:11:01.379Z,4.35
2022-08-01T18:15:06.127Z,7.75
2022-08-01T18:19:08.882Z,7.90
2022-08-01T18:23:11.385Z,6.28
2022-08-01T18:27:13.505Z,14.95
2022-08-01T18:31:20.591Z,8.50
2022-08-01T18:35:30.943Z,5.75
2022-08-01T18:39:46.668Z,6.28
2022-08-01T18:43:48.904Z,4.60
2022-08-01T18:47:51.204Z,6.20
2022-08-01T18:51:54.417Z,7.72
2022-08-01T18:55:57.009Z,6.65
2022-08-01T18:59:59.095Z,7.50
2022-08-01T19:04:01.887Z,5.35
2022-08-01T19:08:06.170Z,7.30
2022-08-01T19:12:09.735Z,8.20
2022-08-01T19:16:11.912Z,6.80
2022-08-01T19:20:14.204Z,8.43
2022-08-01T19:24:22.994Z,9.35
2022-08-01T19:28:27.305Z,8.27
2022-08-01T19:32:34.288Z,7.53
2022-08-01T19:36:38.431Z,5.78
2022-08-01T19:40:41.054Z,4.28
2022-08-01T19:44:45.047Z,9.77
2022-08-01T19:48:53.612Z,5.70
2022-08-01T19:52:57.770Z,7.45
2022-08-01T19:57:03.052Z,5.80
2022-08-01T20:01:07.895Z,6.28
2022-08-01T20:05:10.750Z,8.57
2022-08-01T20:09:14.054Z,6.68
2022-08-01T20:13:17.441Z,7.35
2022-08-01T20:17:21.450Z,8.25
2022-08-01T20:21:26.977Z,8.30
2022-08-01T20:25:39.797Z,8.68
2022-08-01T20:29:44.824Z,9.75
2022-08-01T20:33:49.092Z,7.68
2022-08-01T20:38:06.652Z,8.88
2022-08-01T20:42:09.496Z,13.07
2022-08-01T20:46:12.476Z,9.52
2022-08-01T20:50:52.946Z,7.28
2022-08-01T20:54:56.118Z,9.98
2022-08-01T20:59:08.986Z,9.50
2022-08-01T21:03:27.525Z,8.23
2022-08-01T21:07:57.010Z,7.38
2022-08-01T21:12:04.013Z,8.70
2022-08-01T21:16:23.232Z,13.73
2022-08-01T21:20:28.626Z,14.00
2022-08-01T21:24:42.596Z,14.45
2022-08-01T21:28:54.569Z,15.55
2022-08-01T21:32:57.905Z,18.58
2022-08-01T21:37:00.283Z,13.98
2022-08-01T21:41:05.246Z,16.27
2022-08-01T21:45:09.756Z,18.27
2022-08-01T21:49:12.869Z,16.88
2022-08-01T21:53:50.442Z,14.27
2022-08-01T21:58:09.189Z,16.48
2022-08-01T22:02:19.224Z,14.95
2022-08-01T22:06:24.452Z,11.85
2022-08-01T22:10:27.522Z,15.05
2022-08-01T22:14:31.743Z,12.10
2022-08-01T22:18:39.072Z,10.38
2022-08-01T22:22:51.290Z,14.17
2022-08-01T22:26:55.974Z,10.55
2022-08-01T22:31:01.530Z,14.23
2022-08-01T22:35:09.152Z,14.90
2022-08-01T22:39:11.432Z,10.27
2022-08-01T22:43:40.106Z,9.73
2022-08-01T22:47:55.129Z,14.68
2022-08-01T22:52:24.371Z,9.90
2022-08-01T22:56:28.793Z,8.25
2022-08-01T23:00:35.812Z,11.02
2022-08-01T23:04:45.449Z,12.32
2022-08-01T23:08:49.570Z,9.80
2022-08-01T23:12:53.436Z,10.75
2022-08-01T23:17:03.296Z,10.85
2022-08-01T23:21:27.580Z,11.38
2022-08-01T23:25:32.220Z,15.00
2022-08-01T23:29:34.560Z,11.70
2022-08-01T23:33:36.982Z,10.23
2022-08-01T23:37:39.286Z,9.15
2022-08-01T23:41:57.922Z,13.45
2022-08-01T23:46:04.428Z,12.77
2022-08-01T23:50:08.558Z,15.70
2022-08-01T23:54:11.310Z,10.40
2022-08-01T23:58:13.425Z,10.02
